Spangler Peak (973) Station Data

Red Flag Warning: No
Fire Weather Zone: 250
SDGE Region: Ramona
Lat/Lon: 32.997/-116.789

Observations

Time Wind Speed/Gust Temp(F) RH Fuel Moist Fuel Temp(F) Dewpt(F) Tmax(F) Tmin(F) Accum Precip 10-min Precip SL Press(mb)
5/24 8:20am 84 6 G 9 66° 57% - - 50° 67.6° 58.8° - - 880.0
5/24 8:10am 169 5 G 8 65° 59% - - 50° 67.6° 58.8° - - 880.0
5/24 7:50am 179 2 G 5 63° 65% - - 51° 67.6° 58.8° - - 882.0
5/24 7:40am 69 3 G 6 60° 71% - - 51° 67.6° 58.8° - - 884.0
5/24 7:30am 57 4 G 6 60° 73% - - 51° 67.6° 58.8° - - 885.0
5/24 7:20am 340 3 G 6 59° 74% - - 51° 67.6° 58.8° - - 885.0
5/24 7:10am 292 4 G 7 59° 71% - - 50° 67.6° 58.8° - - 884.0
5/24 7:00am 313 3 G 8 61° 65% - - 49° 67.6° 59.4° - - 881.0
5/24 6:50am 356 2 G 4 61° 62% - - 47° 67.6° 59.4° - - 880.0
5/24 6:40am 261 5 G 9 63° 52% - - 45° 67.6° 60° - - 876.0
5/24 6:30am 175 6 G 7 65° 46% - - 44° 67.6° 60° - - 874.0
5/24 6:20am 153 5 G 8 64° 48% - - 44° 67.6° 60° - - 875.0
5/24 6:10am 120 4 G 6 63° 49% - - 44° 67.6° 60° - - 875.0
5/24 6:00am 125 5 G 7 63° 50% - - 44° 67.6° 60° - - 876.0
5/24 5:50am 155 6 G 8 61° 58% - - 46° 67.6° 60° - - 879.0
5/24 5:40am 159 8 G 9 61° 60% - - 47° 67.6° 60° - - 879.0
5/24 5:30am 157 8 G 8 61° 60% - - 47° 67.6° 60.3° - - 879.0
5/24 5:20am 150 7 G 8 61° 59% - - 47° 67.6° 60.4° - - 879.0
5/24 5:10am 139 5 G 6 62° 58% - - 47° 67.6° 60.4° - - 879.0
5/24 5:00am 132 5 G 6 62° 63% - - 49° 67.6° 60.4° - - 881.0
5/24 4:50am 137 5 G 6 61° 69% - - 51° 67.6° 60.4° - - 883.0
5/24 4:40am 151 6 G 7 61° 69% - - 51° 67.6° 60.5° - - 883.0
5/24 4:30am 141 6 G 7 62° 66% - - 50° 67.6° 61.5° - - 882.0
5/24 4:20am 143 6 G 7 63° 66% - - 51° 67.6° 62.3° - - 882.0
5/24 4:10am 141 5 G 6 64° 61% - - 50° 67.6° 62.3° - - 880.0
5/24 4:00am 112 3 G 4 64° 57% - - 49° 67.6° 62.3° - - 879.0
5/24 3:50am 66 1 G 4 63° 57% - - 48° 67.6° 62.3° - - 879.0
5/24 3:40am 143 0 G 2 63° 58% - - 48° 67.6° 62.3° - - 879.0
5/24 3:30am 172 0 G 1 63° 59% - - 48° 67.6° 62.3° - - 879.0
5/24 3:20am 191 0 G 1 63° 60% - - 49° 67.6° 62.3° - - 880.0
5/24 3:10am 198 2 G 3 63° 59% - - 49° 67.6° 62.3° - - 879.0
5/24 3:00am 232 1 G 2 64° 57% - - 48° 67.6° 62.3° - - 879.0
5/24 2:50am 187 1 G 3 64° 58% - - 49° 67.6° 62.3° - - 879.0
5/24 2:40am 178 2 G 3 63° 60% - - 49° 67.6° 62.3° - - 880.0
5/24 2:30am 146 5 G 6 65° 57% - - 49° 67.6° 62.3° - - 879.0
5/24 2:20am 140 5 G 6 65° 54% - - 48° 67.6° 62.3° - - 878.0
5/24 2:10am 124 4 G 5 65° 55% - - 49° 67.6° 62.3° - - 878.0
5/24 2:00am 121 3 G 5 65° 56% - - 49° 67.6° 62.3° - - 879.0
5/24 1:50am 129 5 G 6 63° 60% - - 49° 67.6° 62.3° - - 880.0
5/24 1:40am 151 6 G 8 63° 61% - - 50° 67.6° 62.6° - - 881.0
5/24 1:30am 159 8 G 9 64° 64% - - 51° 67.6° 63.1° - - 882.0
5/24 1:20am 156 8 G 9 63° 67% - - 52° 67.6° 63.1° - - 883.0
5/24 1:10am 155 7 G 9 64° 65% - - 51° 67.6° 63.2° - - 882.0
5/24 1:00am 151 7 G 8 64° 67% - - 52° 67.6° 63.4° - - 883.0
5/24 12:50am 153 7 G 8 64° 68% - - 53° 67.6° 63.4° - - 884.0
5/24 12:40am 135 6 G 8 64° 67% - - 53° 67.6° 63.8° - - 883.0
5/24 12:30am 145 7 G 9 66° 63% - - 53° 67.6° 64.8° - - 882.0
5/24 12:20am 144 6 G 8 67° 59% - - 52° 67.6° 66.7° - - 880.0
5/24 12:10am 148 7 G 8 67° 57% - - 51° 67.5° 66.7° - - 880.0
5/24 12:00am 152 7 G 8 67° 59% - - 52° 89.8° 66° - - 881.0
5/23 11:50pm 146 6 G 7 67° 59% - - 53° 89.8° 66° - - 881.0
5/23 11:40pm 144 6 G 7 67° 59% - - 53° 89.8° 66° - - 881.0
5/23 11:30pm 134 5 G 6 68° 58% - - 53° 89.8° 66° - - 881.0
5/23 11:20pm 124 6 G 7 68° 58% - - 53° 89.8° 66° - - 881.0
5/23 11:10pm 137 7 G 7 68° 58% - - 53° 89.8° 66° - - 881.0
5/23 11:00pm 139 6 G 7 68° 57% - - 53° 89.8° 66° - - 880.0
5/23 10:50pm 146 4 G 6 69° 56% - - 53° 89.8° 66° - - 880.0
5/23 10:40pm 118 4 G 6 70° 54% - - 53° 89.8° 66° - - 880.0
5/23 10:30pm 130 6 G 7 69° 56% - - 53° 89.8° 66° - - 880.0
5/23 10:20pm 129 5 G 7 69° 56% - - 53° 89.8° 66° - - 880.0
5/23 10:10pm 131 4 G 5 69° 55% - - 53° 89.8° 66° - - 880.0
5/23 10:00pm 116 4 G 6 70° 54% - - 53° 89.8° 66° - - 880.0
5/23 9:50pm 104 3 G 5 70° 53% - - 52° 89.8° 66° - - 879.0
5/23 9:40pm 77 3 G 4 70° 53% - - 52° 89.8° 66° - - 879.0
5/23 9:30pm 95 1 G 2 70° 53% - - 52° 89.8° 66° - - 879.0
5/23 9:20pm 186 1 G 2 70° 53% - - 52° 89.8° 66° - - 879.0
5/23 9:10pm 270 2 G 4 70° 53% - - 53° 89.8° 66° - - 880.0
5/23 9:00pm 260 3 G 4 71° 53% - - 53° 89.8° 66° - - 880.0
5/23 8:50pm 247 3 G 5 72° 52% - - 53° 89.8° 66° - - 880.0
5/23 8:40pm 250 5 G 7 72° 50% - - 53° 89.8° 66° - - 879.0
5/23 8:30pm 241 4 G 6 73° 49% - - 53° 89.8° 66° - - 879.0
5/23 8:20pm 254 3 G 5 74° 47% - - 53° 89.8° 66° - - 879.0
5/23 8:10pm 252 3 G 3 74° 46% - - 52° 89.8° 66° - - 879.0
5/23 8:00pm 252 2 G 4 75° 46% - - 53° 89.8° 66° - - 879.0
5/23 7:50pm 295 3 G 4 76° 44% - - 52° 89.8° 66° - - 879.0
5/23 7:40pm 258 4 G 7 76° 42% - - 52° 89.8° 66° - - 878.0
5/23 7:30pm 265 5 G 7 77° 40% - - 51° 89.8° 66° - - 878.0
5/23 7:20pm 265 6 G 10 78° 39% - - 51° 89.8° 66° - - 878.0
5/23 7:10pm 276 7 G 10 80° 36% - - 50° 89.8° 66° - - 877.0
5/23 7:00pm 277 7 G 10 81° 33% - - 49° 89.8° 66° - - 876.0
5/23 6:50pm 280 7 G 11 82° 32% - - 49° 89.8° 66° - - 877.0
5/23 6:40pm 282 8 G 11 83° 31% - - 49° 89.8° 66° - - 877.0
5/23 6:30pm 274 7 G 11 84° 30% - - 49° 89.8° 66° - - 877.0
5/23 6:20pm 261 8 G 11 84° 29% - - 48° 89.8° 66° - - 876.0
5/23 6:10pm 249 7 G 12 84° 27% - - 47° 89.8° 66° - - 876.0
5/23 6:00pm 249 6 G 11 85° 26% - - 46° 89.8° 66° - - 876.0
5/23 5:50pm 245 5 G 10 85° 25% - - 45° 89.8° 66° - - 875.0
5/23 5:40pm 252 5 G 10 85° 25% - - 45° 89.8° 66° - - 875.0
5/23 5:30pm 270 5 G 9 85° 24% - - 44° 89.8° 66° - - 875.0
5/23 5:20pm 255 5 G 9 85° 24% - - 44° 89.8° 66° - - 875.0
5/23 5:10pm 271 5 G 9 85° 23% - - 43° 89.8° 66° - - 875.0
5/23 5:00pm 277 6 G 9 85° 22% - - 42° 89.8° 66° - - 874.0
5/23 4:50pm 271 6 G 10 84° 22% - - 41° 89.8° 66° - - 874.0
5/23 4:40pm 274 7 G 12 84° 24% - - 43° 89.8° 66° - - 875.0
5/23 4:30pm 272 6 G 11 84° 25% - - 44° 89.8° 66° - - 875.0
5/23 4:20pm 269 6 G 11 83° 27% - - 46° 89.8° 66° - - 876.0
5/23 4:10pm 266 7 G 12 83° 29% - - 47° 89.8° 66° - - 877.0
5/23 4:00pm 297 6 G 12 83° 30% - - 49° 89.8° 66° - - 877.0
5/23 3:50pm 268 9 G 15 82° 34% - - 51° 89.8° 66° - - 878.0
5/23 3:40pm 290 8 G 14 83° 34% - - 51° 89.8° 66° - - 878.0
5/23 3:30pm 255 7 G 15 82° 37% - - 53° 89.8° 66° - - 879.0
5/23 3:20pm 250 7 G 12 82° 38% - - 54° 89.8° 66° - - 880.0
5/23 3:10pm 247 8 G 12 81° 40% - - 55° 89.8° 66° - - 880.0
5/23 3:00pm 249 9 G 14 81° 41% - - 55° 89.8° 66° - - 880.0
5/23 2:50pm 248 9 G 16 81° 41% - - 55° 89.8° 66° - - 880.0
5/23 2:40pm 252 10 G 16 81° 42% - - 55° 89.8° 66° - - 881.0
5/23 2:30pm 248 10 G 14 80° 42% - - 55° 89.8° 66° - - 881.0
5/23 2:20pm 259 11 G 15 81° 42% - - 55° 89.8° 66° - - 881.0
5/23 2:10pm 248 11 G 17 81° 42% - - 56° 89.8° 66° - - 881.0
5/23 2:00pm 254 11 G 16 82° 40% - - 55° 89.8° 66° - - 881.0
5/23 1:50pm 258 9 G 15 83° 39% - - 55° 89.8° 66° - - 880.0
5/23 1:40pm 252 11 G 16 83° 39% - - 55° 89.8° 66° - - 880.0
5/23 1:30pm 251 11 G 15 83° 38% - - 55° 89.8° 66° - - 880.0
5/23 1:20pm 253 11 G 18 82° 39% - - 55° 89.8° 66° - - 881.0
5/23 1:10pm 250 11 G 17 83° 37% - - 54° 89.8° 66° - - 880.0
5/23 1:00pm 251 11 G 17 85° 34% - - 53° 89.8° 66° - - 880.0
5/23 12:50pm 257 9 G 15 85° 32% - - 52° 89.8° 66° - - 879.0
5/23 12:40pm 248 8 G 13 86° 29% - - 51° 89.8° 66° - - 879.0
5/23 12:30pm 258 11 G 17 87° 28% - - 49° 89.8° 66° - - 879.0
5/23 12:20pm 250 9 G 17 88° 23% - - 46° 89.8° 66° - - 877.0
5/23 12:10pm 254 7 G 11 88° 22% - - 45° 89.8° 66° - - 877.0
5/23 12:00pm 247 9 G 14 88° 23% - - 46° 89.8° 66° - - 878.0
5/23 11:50am 254 11 G 16 89° 22% - - 45° 89.8° 66° - - 878.0
5/23 11:40am 263 7 G 14 89° 19% - - 41° 89.8° 66° - - 877.0
5/23 11:30am 282 7 G 11 89° 18% - - 41° 89.1° 66° - - 876.0
5/23 11:20am 292 4 G 8 88° 18% - - 40° 89° 66° - - 876.0
5/23 11:10am 276 4 G 8 88° 18% - - 40° 87.9° 66° - - 876.0
5/23 11:00am 279 3 G 6 87° 18% - - 39° 87.5° 66° - - 875.0
5/23 10:50am 332 3 G 6 87° 18% - - 38° 87.5° 66° - - 875.0
5/23 10:40am 291 2 G 6 86° 19% - - 38° 87.1° 66° - - 874.0
5/23 10:30am 336 1 G 4 86° 19% - - 39° 86.7° 66° - - 874.0
5/23 10:20am 198 1 G 4 85° 20% - - 40° 86.3° 66° - - 874.0
5/23 10:10am 321 2 G 4 84° 21% - - 40° 84.4° 66° - - 873.0
5/23 10:00am 345 2 G 5 83° 23% - - 41° 84.1° 66° - - 873.0
5/23 9:50am 321 2 G 4 81° 24% - - 41° 82.4° 66° - - 873.0
5/23 9:40am 303 2 G 4 80° 27% - - 43° 80.6° 66° - - 874.0
5/23 9:30am 319 3 G 5 79° 29% - - 44° 80° 66° - - 874.0
5/23 9:20am 304 2 G 4 79° 30% - - 45° 79.9° 66° - - 874.0
5/23 9:10am 300 2 G 4 79° 29% - - 44° 79.9° 66° - - 873.0
5/23 9:00am 19 1 G 3 79° 29% - - 44° 79.6° 66° - - 873.0
5/23 8:50am 25 1 G 2 77° 31% - - 44° 78.6° 66° - - 873.0
5/23 8:40am 15 1 G 3 75° 34% - - 45° 76.6° 66° - - 874.0
5/23 8:30am 295 1 G 2 73° 37% - - 45° 76.6° 66° - - 874.0
5/23 8:20am 283 2 G 3 73° 38% - - 46° 76.6° 66° - - 875.0
5/23 8:10am 6 0 G 2 75° 38% - - 47° 76.6° 66° - - 875.0
5/23 8:00am 338 1 G 2 73° 38% - - 46° 76.6° 66° - - 874.0
5/23 7:50am 36 1 G 2 72° 40% - - 46° 76.6° 66° - - 875.0
5/23 7:40am 35 1 G 2 71° 41% - - 46° 76.6° 66° - - 875.0
5/23 7:30am 55 1 G 2 74° 37% - - 46° 76.6° 66° - - 874.0
5/23 7:20am 185 1 G 2 76° 32% - - 44° 76.6° 66° - - 872.0
5/23 7:10am 156 2 G 3 75° 34% - - 45° 76.1° 66° - - 872.0
5/23 7:00am 163 2 G 2 73° 35% - - 44° 75° 66° - - 872.0
5/23 6:50am 113 2 G 3 71° 34% - - 41° 71.9° 66° - - 871.0
5/23 6:40am 144 4 G 5 70° 31% - - 38° 71.7° 66° - - 870.0
5/23 6:30am 124 4 G 5 69° 33% - - 39° 69.6° 66° - - 870.0
5/23 6:20am 128 3 G 4 69° 33% - - 38° 69.6° 66° - - 870.0
5/23 6:10am 138 1 G 3 69° 32% - - 38° 69.5° 66° - - 870.0
5/23 6:00am 164 1 G 2 69° 32% - - 38° 69.5° 66° - - 870.0